Time;durP1;ratioP1;P1;durP2;ratioP2;P2;SDS_P1;SDS_P2;PMS_P1;PMS_P2;Temp;Humidity;BMP_temperature;BMP_pressure;BME280_temperature;BME280_humidity;BME280_pressure;Samples;Min_cycle;Max_cycle;Signal;HPM_P1;HPM_P2
2023/01/20 06:38:53;;;;;;;20.93;16.10;;;;;;;-1.47;58.42;99690.25;9590018;27;10000942;-67
2023/01/20 06:43:55;;;;;;;19.70;15.50;;;;;;;-0.27;56.00;99567.56;10443691;28;20224;-64
2023/01/20 06:48:59;;;;;;;18.57;14.20;;;;;;;-0.18;55.94;99561.63;10455139;28;20245;-64
2023/01/20 06:54:01;;;;;;;20.03;14.77;;;;;;;0.01;54.76;99557.53;10462896;28;20243;-63
2023/01/20 06:59:02;;;;;;;25.10;16.70;;;;;;;0.18;55.33;99583.34;10450864;28;20244;-62
2023/01/20 07:04:05;;;;;;;17.70;14.20;;;;;;;-0.86;57.59;99663.97;10467446;28;20231;-62
2023/01/20 07:09:09;;;;;;;19.57;15.67;;;;;;;0.87;53.97;99540.03;10462753;28;20230;-63
2023/01/20 07:14:11;;;;;;;17.67;13.57;;;;;;;-0.93;56.84;99649.59;10464761;28;20239;-63
2023/01/20 07:19:13;;;;;;;18.03;13.83;;;;;;;-1.42;58.75;99705.69;10459100;28;20650;-62
2023/01/20 07:24:14;;;;;;;19.80;14.17;;;;;;;-1.41;58.57;99699.50;10295735;23;20324;-36
2023/01/20 07:29:16;;;;;;;19.43;14.00;;;;;;;-0.63;57.95;99641.22;10253430;28;20251;-36
2023/01/20 07:34:18;;;;;;;19.43;15.07;;;;;;;-0.47;57.74;99629.59;10255931;28;20235;-37
2023/01/20 07:39:20;;;;;;;18.73;14.60;;;;;;;-0.57;58.43;99633.88;10247441;28;20239;-36
2023/01/20 07:44:22;;;;;;;20.30;15.43;;;;;;;-0.29;57.58;99620.28;10250058;28;20668;-36
2023/01/20 07:49:24;;;;;;;19.80;15.77;;;;;;;0.63;54.53;99566.59;10226605;28;20298;-36
2023/01/20 07:54:26;;;;;;;20.60;17.07;;;;;;;1.23;53.18;99572.19;10220741;28;20240;-36
2023/01/20 07:59:28;;;;;;;19.53;16.33;;;;;;;0.58;54.59;99616.16;10221931;28;20238;-37
2023/01/20 08:04:32;;;;;;;17.83;15.13;;;;;;;-0.30;55.67;99667.75;10223194;28;20242;-36
2023/01/20 08:09:34;;;;;;;19.87;15.77;;;;;;;0.29;55.77;99658.81;10228426;28;20317;-37
2023/01/20 08:14:35;;;;;;;20.47;16.53;;;;;;;0.80;55.31;99642.47;10233291;28;20244;-37
2023/01/20 08:19:38;;;;;;;19.37;16.43;;;;;;;1.03;53.57;99621.28;10240506;28;20253;-36
2023/01/20 08:24:40;;;;;;;19.87;16.03;;;;;;;1.19;54.00;99641.97;10225201;28;20215;-37
2023/01/20 08:29:42;;;;;;;21.27;15.53;;;;;;;1.79;52.77;99645.72;10235405;28;20234;-36
2023/01/20 08:34:44;;;;;;;20.03;16.00;;;;;;;1.12;54.13;99665.34;10195921;28;20762;-37
2023/01/20 08:39:45;;;;;;;21.23;17.03;;;;;;;0.81;54.99;99686.25;10232162;28;20269;-36
2023/01/20 08:44:52;;;;;;;23.23;17.97;;;;;;;0.76;55.14;99696.34;10240013;28;20621;-37
2023/01/20 08:49:54;;;;;;;18.43;15.20;;;;;;;1.56;53.56;99652.94;10233731;28;20249;-36
2023/01/20 08:54:57;;;;;;;19.80;15.33;;;;;;;1.17;54.10;99691.31;10195524;28;20238;-36
2023/01/20 08:59:59;;;;;;;18.20;14.90;;;;;;;1.77;53.04;99667.91;10179771;28;20760;-36
2023/01/20 09:05:03;;;;;;;18.17;14.23;;;;;;;1.22;53.95;99699.72;10207286;28;20240;-36
2023/01/20 09:10:05;;;;;;;17.33;13.50;;;;;;;1.42;53.35;99703.34;10214177;28;20250;-36
2023/01/20 09:15:07;;;;;;;19.30;14.30;;;;;;;2.52;52.36;99710.81;10235019;28;20244;-35
2023/01/20 09:20:09;;;;;;;18.30;15.23;;;;;;;2.27;52.93;99725.28;10206092;28;20231;-35
2023/01/20 09:25:11;;;;;;;20.27;14.73;;;;;;;1.65;53.18;99713.81;10236317;28;20239;-36
2023/01/20 09:30:14;;;;;;;18.57;13.97;;;;;;;2.78;51.97;99734.94;10228818;28;20246;-36
2023/01/20 09:35:16;;;;;;;18.87;14.53;;;;;;;2.48;52.64;99749.81;10230651;28;20345;-35
2023/01/20 09:46:01;;;;;;;23.37;14.53;;;;;;;2.02;52.81;99751.13;10231398;28;20240;-35
2023/01/20 09:56:39;;;;;;;19.63;14.27;;;;;;;2.49;52.05;99777.94;10236131;28;20256;-36
2023/01/20 10:01:47;;;;;;;33.23;23.97;;;;;;;1.74;53.88;99800.09;10181290;28;20260;-36
2023/01/20 10:07:07;;;;;;;22.50;20.10;;;;;;;2.35;52.43;99775.66;10228357;28;20237;-35
2023/01/20 10:12:18;;;;;;;17.37;13.83;;;;;;;1.45;55.41;99834.13;10238271;28;20317;-36
2023/01/20 10:17:32;;;;;;;16.60;13.03;;;;;;;1.13;56.54;99826.97;10232812;28;20249;-36
2023/01/20 10:22:44;;;;;;;18.97;14.87;;;;;;;0.58;57.61;99848.78;10224312;28;20628;-36
2023/01/20 10:27:52;;;;;;;17.83;13.37;;;;;;;1.46;55.61;99781.25;10202950;28;20277;-35
2023/01/20 10:33:10;;;;;;;19.17;14.20;;;;;;;2.08;55.17;99776.16;10237610;28;20808;-35
2023/01/20 10:38:35;;;;;;;18.53;14.00;;;;;;;1.91;54.91;99778.44;10231593;28;20243;-36
2023/01/20 10:43:37;;;;;;;17.67;13.90;;;;;;;1.68;55.44;99784.78;10175183;28;20250;-36
2023/01/20 10:49:13;;;;;;;17.90;13.87;;;;;;;0.42;57.68;99832.47;10235870;28;20254;-35
2023/01/20 10:54:37;;;;;;;18.53;13.87;;;;;;;2.94;53.62;99767.97;10177502;28;20231;-36
2023/01/20 10:59:47;;;;;;;16.13;12.73;;;;;;;2.72;53.42;99772.44;10232984;28;20235;-36
2023/01/20 11:06:26;;;;;;;18.37;13.77;;;;;;;0.05;59.10;99799.22;10390356;28;20823;-63
2023/01/20 11:11:28;;;;;;;17.63;12.90;;;;;;;0.33;58.89;99783.16;10376242;28;20264;-62
2023/01/20 11:16:30;;;;;;;15.03;13.37;;;;;;;-0.47;60.45;99827.63;10377153;28;20243;-63
2023/01/20 11:21:35;;;;;;;14.57;11.90;;;;;;;-0.65;60.23;99829.75;10345235;28;20247;-63
2023/01/20 11:26:37;;;;;;;15.57;12.67;;;;;;;-0.22;60.58;99806.56;10385684;28;20332;-63
2023/01/20 11:31:50;;;;;;;15.70;13.13;;;;;;;-0.16;59.87;99764.88;10375464;28;20927;-62
2023/01/20 11:37:03;;;;;;;14.30;11.00;;;;;;;-0.40;60.28;99798.22;10369873;28;20237;-63
2023/01/20 11:42:26;;;;;;;17.43;12.00;;;;;;;0.04;59.48;99736.19;10378069;28;20236;-62
2023/01/20 11:47:32;;;;;;;18.67;13.63;;;;;;;0.83;57.71;99715.97;10375261;28;20284;-63
2023/01/20 11:52:36;;;;;;;14.30;11.03;;;;;;;0.80;57.47;99733.84;10336957;28;20218;-62
2023/01/20 11:57:46;;;;;;;13.53;11.30;;;;;;;-0.19;58.28;99786.13;10333120;28;20224;-63
2023/01/20 12:03:13;;;;;;;14.83;11.10;;;;;;;0.68;56.51;99723.31;10346637;28;20653;-61
2023/01/20 12:08:29;;;;;;;15.57;11.37;;;;;;;0.77;56.40;99729.63;10305947;28;20228;-62
2023/01/20 12:19:15;;;;;;;13.43;10.53;;;;;;;0.49;55.83;99754.66;10292125;28;21010;-63
2023/01/20 12:25:06;;;;;;;14.23;11.20;;;;;;;0.26;57.54;99788.06;10336736;28;20225;-63
2023/01/20 12:29:59;;;;;;;12.50;10.47;;;;;;;0.83;56.74;99763.41;10352087;28;20248;-63
2023/01/20 12:35:02;;;;;;;13.23;10.60;;;;;;;-0.59;59.10;99833.72;10352523;28;20233;-62
2023/01/20 12:40:25;;;;;;;15.07;10.73;;;;;;;0.52;57.05;99748.34;10351312;28;20246;-63
2023/01/20 12:45:37;;;;;;;8.27;7.47;;;;;;;-0.29;58.54;99821.97;10357508;28;20236;-61
2023/01/20 12:51:08;;;;;;;13.30;10.10;;;;;;;1.11;55.89;99728.72;10353349;28;20616;-61
2023/01/20 12:56:18;;;;;;;14.73;11.03;;;;;;;0.69;55.96;99777.63;10349456;28;20323;-62
2023/01/20 13:01:26;;;;;;;13.50;10.10;;;;;;;0.63;56.93;99767.59;10346016;28;20747;-61
2023/01/20 13:06:28;;;;;;;14.10;11.93;;;;;;;0.34;57.10;99771.66;10350492;28;20751;-62
2023/01/20 13:11:47;;;;;;;12.30;10.23;;;;;;;0.48;57.14;99772.25;10348195;28;20645;-62
2023/01/20 13:17:34;;;;;;;10.23;8.00;;;;;;;0.60;55.17;99791.53;10348577;28;20247;-62
2023/01/20 13:22:37;;;;;;;14.20;9.00;;;;;;;1.09;52.93;99742.03;10364460;23;20286;-34
2023/01/20 13:27:38;;;;;;;10.87;9.43;;;;;;;-0.54;56.99;99838.69;10318249;28;20246;-35
2023/01/20 13:32:47;;;;;;;12.40;9.77;;;;;;;0.11;56.48;99804.03;10313378;28;20241;-35
2023/01/20 13:38:00;;;;;;;11.30;9.90;;;;;;;1.14;53.78;99768.03;10380055;28;20251;-36
2023/01/20 13:43:03;;;;;;;12.17;9.93;;;;;;;1.75;53.96;99776.22;10389215;28;20789;-36
2023/01/20 13:48:05;;;;;;;9.67;8.67;;;;;;;0.55;54.54;99808.66;10393360;28;20237;-37
2023/01/20 13:53:09;;;;;;;12.83;9.10;;;;;;;0.97;53.99;99806.28;10390493;28;20338;-36
2023/01/20 13:58:18;;;;;;;10.00;9.00;;;;;;;0.05;56.53;99857.13;10387508;28;20236;-36
2023/01/20 14:03:29;;;;;;;10.87;8.87;;;;;;;1.17;53.31;99791.47;10387077;28;20713;-36
2023/01/20 14:08:38;;;;;;;12.37;8.87;;;;;;;0.63;54.45;99836.09;10388892;28;20757;-36
2023/01/20 14:13:49;;;;;;;10.50;7.63;;;;;;;-0.05;55.61;99877.19;10385140;28;20761;-35
2023/01/20 14:18:53;;;;;;;10.73;9.60;;;;;;;-0.74;56.31;99888.22;10394317;28;20250;-35
2023/01/20 14:23:57;;;;;;;10.73;9.57;;;;;;;0.50;55.11;99825.66;10392148;28;20734;-36
2023/01/20 14:29:01;;;;;;;13.43;10.47;;;;;;;0.28;55.35;99849.31;10389919;28;21360;-36
2023/01/20 14:34:26;;;;;;;10.80;9.50;;;;;;;1.18;54.24;99819.53;10388676;28;20232;-35
2023/01/20 14:39:29;;;;;;;11.67;9.37;;;;;;;0.64;55.08;99852.72;10385605;28;20229;-36
2023/01/20 14:44:33;;;;;;;9.97;8.20;;;;;;;-0.44;56.20;99895.75;10369315;28;20247;-36
2023/01/20 14:49:39;;;;;;;14.50;10.03;;;;;;;0.65;55.14;99842.06;10390088;28;20243;-36
2023/01/20 14:54:44;;;;;;;12.80;9.93;;;;;;;0.14;55.83;99860.88;10378297;28;20243;-36
2023/01/20 15:00:18;;;;;;;12.80;10.17;;;;;;;1.37;54.88;99834.72;10388070;28;20620;-36
2023/01/20 15:05:32;;;;;;;12.33;8.80;;;;;;;0.01;56.32;99896.94;10390282;28;20318;-36
2023/01/20 15:10:33;;;;;;;16.40;10.43;;;;;;;0.05;56.55;99879.97;10389510;28;20246;-36
2023/01/20 15:15:35;;;;;;;11.40;9.23;;;;;;;0.11;56.37;99879.53;10390638;28;20315;-36
2023/01/20 15:20:40;;;;;;;12.30;9.43;;;;;;;-0.12;55.69;99892.56;10383907;28;20255;-36
2023/01/20 15:25:42;;;;;;;16.80;11.57;;;;;;;0.72;53.88;99854.78;10391182;28;20243;-36
2023/01/20 15:30:44;;;;;;;12.87;10.07;;;;;;;0.91;53.71;99851.53;10376255;28;20621;-36
2023/01/20 15:35:57;;;;;;;13.97;9.90;;;;;;;1.16;52.89;99840.72;10386211;28;20251;-36
2023/01/20 15:40:59;;;;;;;14.40;8.90;;;;;;;0.94;53.51;99880.28;10372192;28;20240;-36
2023/01/20 15:46:00;;;;;;;10.63;8.80;;;;;;;0.75;53.46;99871.19;10390849;28;20244;-36
2023/01/20 15:51:03;;;;;;;10.90;8.63;;;;;;;0.10;54.85;99927.84;10379027;28;20294;-36
2023/01/20 15:56:05;;;;;;;13.13;9.10;;;;;;;0.70;53.90;99891.75;10380153;28;20242;-36
2023/01/20 16:01:11;;;;;;;11.03;9.03;;;;;;;-0.51;55.39;99927.84;10378634;28;20231;-36
2023/01/20 16:06:15;;;;;;;11.70;9.20;;;;;;;0.02;55.60;99932.81;10380813;28;20246;-35
2023/01/20 16:11:18;;;;;;;12.30;8.83;;;;;;;-0.40;56.34;99943.72;10374754;28;20247;-35
2023/01/20 16:16:22;;;;;;;16.27;9.50;;;;;;;1.07;54.52;99875.75;10382829;28;20227;-36
2023/01/20 16:21:24;;;;;;;14.00;10.50;;;;;;;0.97;53.59;99875.63;10380027;28;20235;-36
2023/01/20 16:26:27;;;;;;;12.63;9.77;;;;;;;0.38;54.60;99926.63;10380157;28;20244;-35
2023/01/20 16:31:29;;;;;;;13.67;9.80;;;;;;;-0.12;55.28;99942.56;10386659;28;20584;-35
2023/01/20 16:36:31;;;;;;;12.80;9.20;;;;;;;-0.62;55.78;99946.97;10392428;28;20239;-35
2023/01/20 16:41:35;;;;;;;12.33;10.30;;;;;;;-0.25;55.56;99936.50;10385208;28;20702;-36
2023/01/20 16:46:38;;;;;;;11.60;10.40;;;;;;;-0.46;56.32;99947.59;10391142;28;21628;-36
2023/01/20 16:51:40;;;;;;;13.37;8.73;;;;;;;-1.13;57.80;99991.66;10381768;28;20248;-35
2023/01/20 16:56:41;;;;;;;12.87;9.83;;;;;;;-0.51;56.57;99943.63;10372174;28;20265;-35
2023/01/20 17:01:46;;;;;;;13.00;10.83;;;;;;;-0.00;55.36;99921.56;10341423;28;22720;-35
2023/01/20 17:06:51;;;;;;;11.17;9.43;;;;;;;-0.33;55.81;99930.97;10360325;28;20237;-35
2023/01/20 17:11:52;;;;;;;11.40;8.97;;;;;;;-0.69;56.41;99961.50;10372557;28;20420;-35
2023/01/20 17:16:55;;;;;;;12.57;9.90;;;;;;;-1.00;56.43;99987.25;10370232;28;20229;-35
2023/01/20 17:21:59;;;;;;;11.20;9.07;;;;;;;-0.19;56.22;99945.75;10389587;28;20794;-36
2023/01/20 17:27:00;;;;;;;10.90;8.90;;;;;;;-0.02;55.45;99920.84;10382949;28;20805;-36
2023/01/20 17:32:03;;;;;;;8.43;7.40;;;;;;;-1.06;57.27;100000.78;10384081;28;20230;-35
2023/01/20 17:37:04;;;;;;;12.67;7.97;;;;;;;-0.54;56.01;99954.34;10390030;28;20277;-36
2023/01/20 17:42:06;;;;;;;11.33;8.77;;;;;;;-1.37;57.04;100008.09;10364031;28;20239;-35
2023/01/20 17:47:08;;;;;;;12.27;8.50;;;;;;;-0.37;55.97;99963.69;10383192;28;20244;-35
2023/01/20 17:52:09;;;;;;;10.17;8.80;;;;;;;-0.20;55.45;99934.38;10388773;28;20609;-35
2023/01/20 17:57:11;;;;;;;12.27;9.10;;;;;;;-0.26;55.28;99963.75;10393692;28;20433;-35
2023/01/20 18:02:13;;;;;;;11.60;9.33;;;;;;;1.23;52.69;99907.00;10383900;28;20239;-36
2023/01/20 18:07:15;;;;;;;13.37;10.23;;;;;;;1.31;52.42;99923.06;10371451;28;20270;-36
2023/01/20 18:12:16;;;;;;;15.03;11.27;;;;;;;1.54;51.81;99929.19;10382204;28;20273;-36
2023/01/20 18:17:18;;;;;;;13.60;10.57;;;;;;;1.57;51.61;99951.81;10386332;28;20239;-36
2023/01/20 18:22:20;;;;;;;13.00;10.53;;;;;;;0.32;53.87;99979.72;10394236;28;20235;-36
2023/01/20 18:27:22;;;;;;;14.93;11.37;;;;;;;0.61;54.87;99990.75;10387788;28;20236;-35
2023/01/20 18:32:24;;;;;;;13.67;10.93;;;;;;;1.37;53.91;99951.63;10376759;28;20251;-36
2023/01/20 18:37:25;;;;;;;13.50;11.17;;;;;;;-0.52;57.28;100019.03;10379605;28;20251;-36
2023/01/20 18:42:27;;;;;;;13.83;11.27;;;;;;;0.94;56.46;99983.88;10381845;28;20317;-36
2023/01/20 18:47:29;;;;;;;14.97;11.50;;;;;;;0.30;58.03;100002.69;10384003;28;20228;-36
2023/01/20 18:52:31;;;;;;;14.27;11.13;;;;;;;1.14;56.36;99965.72;10378019;28;20699;-36
2023/01/20 18:57:32;;;;;;;20.57;14.97;;;;;;;0.56;55.92;99965.69;10373799;28;20239;-36
2023/01/20 19:02:34;;;;;;;14.87;11.53;;;;;;;1.49;53.58;99957.72;10376405;28;20247;-36
2023/01/20 19:07:36;;;;;;;18.90;13.27;;;;;;;1.39;53.95;99960.25;10372865;28;20240;-36
2023/01/20 19:12:38;;;;;;;16.60;13.27;;;;;;;0.88;55.04;99976.44;10384343;28;20235;-36
2023/01/20 19:17:39;;;;;;;13.60;10.23;;;;;;;-1.06;58.47;100021.81;10373552;28;20246;-36
2023/01/20 19:22:41;;;;;;;14.07;9.57;;;;;;;1.13;55.07;99977.22;10379688;28;20219;-36
2023/01/20 19:27:43;;;;;;;11.13;9.00;;;;;;;-0.78;57.61;100010.28;10371411;28;20697;-36
2023/01/20 19:32:45;;;;;;;12.97;9.80;;;;;;;0.46;56.51;99992.72;10396043;28;20263;-35
2023/01/20 19:37:47;;;;;;;11.07;8.77;;;;;;;-0.83;58.99;100057.06;10341838;28;20245;-40
2023/01/20 19:42:51;;;;;;;10.40;8.03;;;;;;;-1.11;60.60;100077.31;10399246;28;20256;-41
2023/01/20 19:47:53;;;;;;;9.90;8.47;;;;;;;-1.12;61.56;100080.84;10363171;28;20273;-41
2023/01/20 19:52:55;;;;;;;15.40;10.07;;;;;;;-0.71;60.78;100036.97;10388701;28;20242;-43
2023/01/20 19:57:56;;;;;;;10.30;8.57;;;;;;;-0.92;61.29;100042.75;10395689;28;20754;-43
2023/01/20 20:03:00;;;;;;;11.73;8.93;;;;;;;-0.35;60.64;99996.81;10392551;28;20238;-42
2023/01/20 20:08:02;;;;;;;10.50;8.40;;;;;;;-0.57;60.26;100001.88;10394097;28;20708;-42
2023/01/20 20:13:03;;;;;;;14.97;9.80;;;;;;;0.33;57.41;99951.63;10392278;28;20241;-42
2023/01/20 20:18:05;;;;;;;11.60;8.73;;;;;;;0.99;56.20;99946.66;10397959;28;20239;-40
2023/01/20 20:23:08;;;;;;;12.00;9.47;;;;;;;0.62;57.81;99960.81;10394529;28;20239;-41
2023/01/20 20:28:10;;;;;;;12.50;8.80;;;;;;;0.66;56.94;99951.75;10398769;28;20242;-41
2023/01/20 20:33:11;;;;;;;11.60;9.63;;;;;;;-0.43;59.93;100015.75;10391940;28;20827;-40
2023/01/20 20:38:13;;;;;;;13.33;9.90;;;;;;;-1.09;59.40;100022.00;10396099;28;20644;-41
2023/01/20 20:43:15;;;;;;;10.17;9.10;;;;;;;0.00;57.66;99969.75;10398506;28;20246;-39
2023/01/20 20:48:17;;;;;;;11.57;8.90;;;;;;;0.31;57.06;99963.09;10387786;28;20239;-39
2023/01/20 20:53:19;;;;;;;12.57;9.50;;;;;;;-0.44;58.89;100008.81;10377912;28;20237;-40
2023/01/20 20:58:21;;;;;;;11.87;9.97;;;;;;;-1.05;60.52;100057.66;10379906;28;20519;-37
2023/01/20 21:03:23;;;;;;;10.90;9.67;;;;;;;-1.20;61.27;100060.34;10390966;28;20237;-39
2023/01/20 21:08:25;;;;;;;11.87;9.60;;;;;;;-0.95;59.93;100016.69;10393701;28;20279;-39
2023/01/20 21:13:28;;;;;;;13.00;9.90;;;;;;;-1.03;61.41;100045.25;10395038;28;20756;-38
2023/01/20 21:18:30;;;;;;;13.53;10.17;;;;;;;-0.98;61.62;100027.41;10377192;28;20772;-43
2023/01/20 21:23:33;;;;;;;12.83;10.87;;;;;;;-2.13;63.78;100090.78;10370533;28;20331;-41
2023/01/20 21:28:35;;;;;;;10.83;8.30;;;;;;;-2.74;64.61;100119.75;10372700;28;20241;-44
2023/01/20 21:33:39;;;;;;;14.17;10.83;;;;;;;-2.27;64.80;100080.28;10370292;28;20239;-43
2023/01/20 21:38:45;;;;;;;12.07;10.33;;;;;;;-1.55;63.03;100018.88;10370168;28;20843;-41
2023/01/20 21:54:30;;;;;;;12.77;11.03;;;;;;;-1.27;62.56;100006.53;9511914;28;10001527;-43
2023/01/20 21:59:32;;;;;;;15.13;11.80;;;;;;;-1.33;62.00;99990.34;10413740;28;20236;-42
2023/01/20 22:04:34;;;;;;;13.97;10.60;;;;;;;-1.29;62.20;100011.06;10413071;28;20926;-40
2023/01/20 22:09:36;;;;;;;13.30;10.77;;;;;;;-1.19;62.22;99996.38;10414867;28;20335;-39
2023/01/20 22:14:39;;;;;;;16.23;11.07;;;;;;;-1.14;62.15;99995.22;10411745;28;20236;-42
2023/01/20 22:19:42;;;;;;;14.97;11.93;;;;;;;-0.80;61.32;99964.88;10415362;28;20242;-43
2023/01/20 22:24:44;;;;;;;14.80;11.60;;;;;;;-0.64;61.21;99969.88;10429586;28;20248;-41
2023/01/20 22:29:46;;;;;;;16.33;12.40;;;;;;;-1.53;63.36;100037.16;10428577;28;20234;-40
2023/01/20 22:34:48;;;;;;;17.43;11.33;;;;;;;-1.58;62.94;100032.19;10427622;28;20358;-41
2023/01/20 22:39:49;;;;;;;15.10;10.63;;;;;;;-1.08;62.89;99995.63;10425911;28;20975;-45
2023/01/20 22:44:51;;;;;;;15.57;10.60;;;;;;;-1.69;63.37;100037.28;10433771;28;20232;-40
2023/01/20 22:49:55;;;;;;;12.80;10.90;;;;;;;-1.75;63.85;100056.91;10432825;28;20600;-42
2023/01/20 22:54:57;;;;;;;13.97;10.97;;;;;;;-1.58;63.61;100040.06;10423445;28;20256;-41
2023/01/20 22:59:58;;;;;;;12.63;10.93;;;;;;;-0.86;62.24;99976.63;10425097;28;20229;-38
2023/01/20 23:05:00;;;;;;;13.67;10.40;;;;;;;-1.05;62.53;100000.69;10429387;28;20246;-42
2023/01/20 23:10:03;;;;;;;12.27;9.90;;;;;;;-1.23;61.61;100009.81;10423145;28;20678;-37
2023/01/20 23:15:06;;;;;;;11.73;10.33;;;;;;;-0.48;60.44;99991.56;10418021;28;20346;-42
2023/01/20 23:20:08;;;;;;;17.07;10.10;;;;;;;-1.07;61.38;100013.09;10425349;28;21315;-42
2023/01/20 23:25:10;;;;;;;13.83;10.17;;;;;;;-0.39;60.19;99984.00;10432972;28;20617;-40
2023/01/20 23:30:12;;;;;;;13.37;11.10;;;;;;;0.64;57.83;99981.78;10425710;28;20630;-39
2023/01/20 23:35:14;;;;;;;14.37;11.17;;;;;;;0.41;58.05;99986.09;10433669;28;20229;-44
2023/01/20 23:40:16;;;;;;;13.40;10.80;;;;;;;0.25;57.80;99995.13;10423495;28;20233;-40
2023/01/20 23:45:19;;;;;;;13.07;10.97;;;;;;;0.91;56.07;100025.44;10425997;28;20300;-38
2023/01/20 23:50:20;;;;;;;15.40;11.73;;;;;;;0.80;55.80;100018.38;10425211;28;20230;-43
2023/01/20 23:55:22;;;;;;;14.00;11.17;;;;;;;1.36;55.43;100058.03;10415348;28;20908;-39
